CDT,Max TemperatureF,Mean TemperatureF,Min TemperatureF,Max Dew PointF,MeanDew PointF,Min DewpointF,Max Humidity, Mean Humidity, Min Humidity, Max Sea Level PressureIn, Mean Sea Level PressureIn, Min Sea Level PressureIn, Max VisibilityMiles, Mean VisibilityMiles, Min VisibilityMiles, Max Wind SpeedMPH, Mean Wind SpeedMPH, Max Gust SpeedMPH,PrecipitationIn, CloudCover, Events, WindDirDegrees
2013-10-1,80,68,55,57,53,43,100,70,28,30.01,29.89,29.81,10,10,10,14,8,18,0.00,0,,243
2013-10-2,78,63,48,61,46,37,88,57,27,30.10,30.01,29.90,10,10,10,16,7,23,0.00,1,,104
2013-10-3,78,69,60,68,63,59,94,84,57,29.90,29.85,29.80,10,10,2,15,7,22,0.03,5,Rain,157
2013-10-4,69,66,62,68,63,61,100,92,78,29.94,29.87,29.81,10,10,4,16,6,23,0.33,4,Rain,123
2013-10-5,71,56,42,66,52,39,94,77,48,29.90,29.83,29.79,10,10,10,14,9,21,0.00,5,,223
2013-10-6,48,44,41,46,41,37,100,86,71,29.82,29.76,29.72,10,10,5,12,5,13,0.01,7,Rain,247
2013-10-7,68,54,41,50,45,39,100,74,40,30.06,29.96,29.82,10,10,10,17,9,26,0.00,1,,296
2013-10-8,77,60,44,48,44,39,93,62,27,30.10,30.06,30.02,10,10,10,22,10,30,0.00,0,,172
2013-10-9,73,60,48,50,46,41,93,64,31,30.16,30.12,30.08,10,10,10,14,9,20,0.00,0,,160
2013-10-10,75,60,44,52,47,43,93,69,41,30.12,30.06,29.97,10,10,10,14,8,21,0.00,0,,149
2013-10-11,75,64,53,57,54,50,94,69,47,29.98,29.88,29.80,10,10,7,26,12,36,0.00,2,,151
2013-10-12,68,55,42,57,41,30,82,58,28,30.23,30.01,29.82,10,10,10,21,11,29,0.00,2,,263
2013-10-13,62,48,33,39,32,28,93,62,27,30.44,30.37,30.23,10,10,10,8,5,15,0.00,0,Rain,335
2013-10-14,64,50,37,45,36,32,82,59,34,30.40,30.24,29.97,10,10,9,21,9,29,0.02,2,Rain,119
2013-10-15,57,52,46,55,46,41,100,82,67,29.96,29.83,29.79,10,9,3,20,15,31,0.20,8,Rain,209
2013-10-16,48,47,46,46,44,43,100,91,87,29.97,29.91,29.82,10,9,3,15,11,21,0.00,8,,296
2013-10-17,57,49,41,43,38,32,100,73,38,29.95,29.87,29.82,10,10,10,13,4,17,0.00,5,,253
2013-10-18,51,44,33,43,34,27,93,71,41,29.99,29.94,29.87,10,10,6,17,11,25,0.00,6,,292
2013-10-19,50,41,32,41,34,30,100,85,62,29.92,29.83,29.75,10,10,3,16,6,21,0.07,4,Rain,244
2013-10-20,55,42,28,45,36,28,100,80,54,29.88,29.77,29.67,10,10,10,18,6,32,0.00,5,,214
2013-10-21,42,34,26,34,26,19,93,69,45,30.01,29.97,29.88,10,10,9,21,11,30,0.00,4,Rain,298
2013-10-22,42,33,24,30,27,23,93,77,49,30.03,29.97,29.93,10,10,4,16,3,22,0.00,6,Snow,353
2013-10-23,41,34,26,30,25,18,93,71,42,30.08,30.04,30.01,10,10,10,14,7,24,0.00,6,,300
2013-10-24,41,32,24,25,22,19,93,65,42,30.34,30.23,30.09,10,10,8,16,7,23,0.00,6,,312
2013-10-25,53,38,23,32,27,21,100,65,33,30.36,30.22,29.96,10,10,10,21,7,30,0.00,2,,223
2013-10-26,50,41,32,34,29,27,81,60,40,30.11,30.01,29.87,10,10,10,22,13,31,0.00,0,,296
2013-10-27,57,40,23,30,28,21,100,66,36,30.09,29.98,29.87,10,10,10,16,7,24,0.00,0,,200
2013-10-28,46,40,35,34,31,28,81,70,57,30.34,30.24,29.99,10,10,10,15,10,23,0.00,3,,63
2013-10-29,59,48,37,41,36,30,81,62,45,30.34,30.18,30.07,10,10,6,16,10,23,0.00,6,,116
2013-10-30,59,54,48,57,51,41,100,93,71,30.07,29.91,29.66,10,5,0,22,9,29,0.52,6,Fog-Rain,144
2013-10-31,59,49,39,59,46,37,100,95,87,29.64,29.51,29.42,10,7,0,15,11,21,0.05,8,Rain,280